sensor_id;sensor_type;location;lat;lon;timestamp;temperature;humidity
12622;DHT22;6376;48.182;-1.644;2023-02-03T00:01:01;12.10;80.00
12622;DHT22;6376;48.182;-1.644;2023-02-03T00:03:27;12.10;80.00
12622;DHT22;6376;48.182;-1.644;2023-02-03T00:05:53;12.10;80.00
12622;DHT22;6376;48.182;-1.644;2023-02-03T00:08:20;12.10;80.00
12622;DHT22;6376;48.182;-1.644;2023-02-03T00:10:47;12.10;80.00
12622;DHT22;6376;48.182;-1.644;2023-02-03T00:13:13;12.10;80.00
12622;DHT22;6376;48.182;-1.644;2023-02-03T00:15:39;12.10;80.00
12622;DHT22;6376;48.182;-1.644;2023-02-03T00:18:04;12.10;80.10
12622;DHT22;6376;48.182;-1.644;2023-02-03T00:20:30;12.10;80.10
12622;DHT22;6376;48.182;-1.644;2023-02-03T00:23:06;12.10;80.10
12622;DHT22;6376;48.182;-1.644;2023-02-03T00:25:31;12.10;80.10
12622;DHT22;6376;48.182;-1.644;2023-02-03T00:27:57;12.00;80.00
12622;DHT22;6376;48.182;-1.644;2023-02-03T00:30:23;12.00;79.90
12622;DHT22;6376;48.182;-1.644;2023-02-03T00:32:49;12.00;80.10
12622;DHT22;6376;48.182;-1.644;2023-02-03T00:35:14;12.00;80.20
12622;DHT22;6376;48.182;-1.644;2023-02-03T00:37:40;12.00;80.20
12622;DHT22;6376;48.182;-1.644;2023-02-03T00:40:06;12.00;80.20
12622;DHT22;6376;48.182;-1.644;2023-02-03T00:42:33;12.00;80.10
12622;DHT22;6376;48.182;-1.644;2023-02-03T00:44:59;12.00;80.10
12622;DHT22;6376;48.182;-1.644;2023-02-03T00:47:25;12.00;80.20
12622;DHT22;6376;48.182;-1.644;2023-02-03T00:49:51;12.00;80.30
12622;DHT22;6376;48.182;-1.644;2023-02-03T00:52:16;12.00;80.20
12622;DHT22;6376;48.182;-1.644;2023-02-03T00:54:42;11.90;80.10
12622;DHT22;6376;48.182;-1.644;2023-02-03T00:57:08;12.00;80.20
12622;DHT22;6376;48.182;-1.644;2023-02-03T00:59:33;11.90;80.20
12622;DHT22;6376;48.182;-1.644;2023-02-03T01:01:59;11.90;80.30
12622;DHT22;6376;48.182;-1.644;2023-02-03T01:04:25;11.90;80.30
12622;DHT22;6376;48.182;-1.644;2023-02-03T01:06:51;11.90;80.30
12622;DHT22;6376;48.182;-1.644;2023-02-03T01:09:20;11.90;80.30
12622;DHT22;6376;48.182;-1.644;2023-02-03T01:11:46;11.90;80.30
12622;DHT22;6376;48.182;-1.644;2023-02-03T01:14:12;11.90;80.30
12622;DHT22;6376;48.182;-1.644;2023-02-03T01:16:37;11.90;80.30
12622;DHT22;6376;48.182;-1.644;2023-02-03T01:19:04;11.90;80.30
12622;DHT22;6376;48.182;-1.644;2023-02-03T01:21:30;11.90;80.30
12622;DHT22;6376;48.182;-1.644;2023-02-03T01:23:57;11.90;80.30
12622;DHT22;6376;48.182;-1.644;2023-02-03T01:26:23;11.90;80.40
12622;DHT22;6376;48.182;-1.644;2023-02-03T01:28:55;11.90;80.40
12622;DHT22;6376;48.182;-1.644;2023-02-03T01:31:24;11.90;80.40
12622;DHT22;6376;48.182;-1.644;2023-02-03T01:33:51;11.80;80.30
12622;DHT22;6376;48.182;-1.644;2023-02-03T01:36:18;11.80;80.30
12622;DHT22;6376;48.182;-1.644;2023-02-03T01:38:44;11.80;80.30
12622;DHT22;6376;48.182;-1.644;2023-02-03T01:41:13;11.80;80.30
12622;DHT22;6376;48.182;-1.644;2023-02-03T01:43:42;11.80;80.30
12622;DHT22;6376;48.182;-1.644;2023-02-03T01:46:36;11.80;80.30
12622;DHT22;6376;48.182;-1.644;2023-02-03T01:51:36;11.80;80.20
12622;DHT22;6376;48.182;-1.644;2023-02-03T01:54:05;11.80;80.20
12622;DHT22;6376;48.182;-1.644;2023-02-03T01:56:34;11.80;80.30
12622;DHT22;6376;48.182;-1.644;2023-02-03T01:59:03;11.80;80.30
12622;DHT22;6376;48.182;-1.644;2023-02-03T02:01:30;11.80;80.30
12622;DHT22;6376;48.182;-1.644;2023-02-03T02:03:58;11.80;80.30
12622;DHT22;6376;48.182;-1.644;2023-02-03T02:06:26;11.80;80.30
12622;DHT22;6376;48.182;-1.644;2023-02-03T02:08:52;11.80;80.30
12622;DHT22;6376;48.182;-1.644;2023-02-03T02:11:19;11.80;80.30
12622;DHT22;6376;48.182;-1.644;2023-02-03T02:13:49;11.80;80.30
12622;DHT22;6376;48.182;-1.644;2023-02-03T02:25:20;11.80;80.30
12622;DHT22;6376;48.182;-1.644;2023-02-03T02:30:42;11.70;80.30
12622;DHT22;6376;48.182;-1.644;2023-02-03T02:39:09;11.70;80.30
12622;DHT22;6376;48.182;-1.644;2023-02-03T02:41:42;11.70;80.30
12622;DHT22;6376;48.182;-1.644;2023-02-03T02:44:14;11.70;80.30
12622;DHT22;6376;48.182;-1.644;2023-02-03T02:46:47;11.70;80.30
12622;DHT22;6376;48.182;-1.644;2023-02-03T02:51:48;11.70;80.30
12622;DHT22;6376;48.182;-1.644;2023-02-03T02:54:17;11.70;80.30
12622;DHT22;6376;48.182;-1.644;2023-02-03T02:56:54;11.70;80.30
12622;DHT22;6376;48.182;-1.644;2023-02-03T02:59:20;11.70;80.30
12622;DHT22;6376;48.182;-1.644;2023-02-03T03:01:46;11.70;80.30
12622;DHT22;6376;48.182;-1.644;2023-02-03T03:04:13;11.70;80.30
12622;DHT22;6376;48.182;-1.644;2023-02-03T03:06:48;11.70;80.30
12622;DHT22;6376;48.182;-1.644;2023-02-03T03:09:23;11.60;80.20
12622;DHT22;6376;48.182;-1.644;2023-02-03T03:11:52;11.70;80.40
12622;DHT22;6376;48.182;-1.644;2023-02-03T03:14:21;11.70;80.40
12622;DHT22;6376;48.182;-1.644;2023-02-03T03:16:59;11.60;80.30
12622;DHT22;6376;48.182;-1.644;2023-02-03T03:19:30;11.60;80.40
12622;DHT22;6376;48.182;-1.644;2023-02-03T03:22:01;11.60;80.40
12622;DHT22;6376;48.182;-1.644;2023-02-03T03:24:31;11.60;80.30
12622;DHT22;6376;48.182;-1.644;2023-02-03T03:27:10;11.60;80.40
12622;DHT22;6376;48.182;-1.644;2023-02-03T03:29:46;11.60;80.40
12622;DHT22;6376;48.182;-1.644;2023-02-03T03:32:13;11.60;80.30
12622;DHT22;6376;48.182;-1.644;2023-02-03T03:34:40;11.60;80.30
12622;DHT22;6376;48.182;-1.644;2023-02-03T03:37:17;11.60;80.30
12622;DHT22;6376;48.182;-1.644;2023-02-03T03:45:25;11.60;80.40
12622;DHT22;6376;48.182;-1.644;2023-02-03T03:50:30;11.60;80.30
12622;DHT22;6376;48.182;-1.644;2023-02-03T03:52:58;11.60;80.40
12622;DHT22;6376;48.182;-1.644;2023-02-03T03:55:27;11.60;80.40
12622;DHT22;6376;48.182;-1.644;2023-02-03T03:57:55;11.60;80.30
12622;DHT22;6376;48.182;-1.644;2023-02-03T04:00:23;11.60;80.40
12622;DHT22;6376;48.182;-1.644;2023-02-03T04:02:51;11.60;80.40
12622;DHT22;6376;48.182;-1.644;2023-02-03T04:05:19;11.60;80.40
12622;DHT22;6376;48.182;-1.644;2023-02-03T04:07:46;11.60;80.40
12622;DHT22;6376;48.182;-1.644;2023-02-03T04:12:38;11.60;80.40
12622;DHT22;6376;48.182;-1.644;2023-02-03T04:15:03;11.60;80.40
12622;DHT22;6376;48.182;-1.644;2023-02-03T04:17:29;11.60;80.40
12622;DHT22;6376;48.182;-1.644;2023-02-03T04:19:57;11.60;80.40
12622;DHT22;6376;48.182;-1.644;2023-02-03T04:22:23;11.60;80.40
12622;DHT22;6376;48.182;-1.644;2023-02-03T04:24:48;11.60;80.40
12622;DHT22;6376;48.182;-1.644;2023-02-03T04:27:14;11.60;80.40
12622;DHT22;6376;48.182;-1.644;2023-02-03T04:29:40;11.60;80.40
12622;DHT22;6376;48.182;-1.644;2023-02-03T04:32:05;11.60;80.40
12622;DHT22;6376;48.182;-1.644;2023-02-03T04:34:31;11.50;80.40
12622;DHT22;6376;48.182;-1.644;2023-02-03T04:36:57;11.60;81.20
12622;DHT22;6376;48.182;-1.644;2023-02-03T04:39:22;11.50;80.40
12622;DHT22;6376;48.182;-1.644;2023-02-03T04:41:48;11.50;80.40
12622;DHT22;6376;48.182;-1.644;2023-02-03T04:44:13;11.60;80.40
12622;DHT22;6376;48.182;-1.644;2023-02-03T04:46:39;11.50;80.40
12622;DHT22;6376;48.182;-1.644;2023-02-03T04:49:05;11.50;80.40
12622;DHT22;6376;48.182;-1.644;2023-02-03T04:51:30;11.50;80.40
12622;DHT22;6376;48.182;-1.644;2023-02-03T04:53:56;11.50;80.40
12622;DHT22;6376;48.182;-1.644;2023-02-03T04:56:22;11.50;80.30
12622;DHT22;6376;48.182;-1.644;2023-02-03T04:58:47;11.50;80.40
12622;DHT22;6376;48.182;-1.644;2023-02-03T05:01:13;11.50;80.30
12622;DHT22;6376;48.182;-1.644;2023-02-03T05:03:38;11.50;80.40
12622;DHT22;6376;48.182;-1.644;2023-02-03T05:06:04;11.50;80.30
12622;DHT22;6376;48.182;-1.644;2023-02-03T05:08:30;11.50;80.40
12622;DHT22;6376;48.182;-1.644;2023-02-03T05:10:56;11.50;80.40
12622;DHT22;6376;48.182;-1.644;2023-02-03T05:13:21;11.50;80.30
12622;DHT22;6376;48.182;-1.644;2023-02-03T05:15:47;11.50;80.40
12622;DHT22;6376;48.182;-1.644;2023-02-03T05:18:13;11.50;80.40
12622;DHT22;6376;48.182;-1.644;2023-02-03T05:20:38;11.50;80.40
12622;DHT22;6376;48.182;-1.644;2023-02-03T05:23:04;11.50;80.40
12622;DHT22;6376;48.182;-1.644;2023-02-03T05:25:30;11.50;80.40
12622;DHT22;6376;48.182;-1.644;2023-02-03T05:27:55;11.50;80.40
12622;DHT22;6376;48.182;-1.644;2023-02-03T05:30:21;11.50;80.40
12622;DHT22;6376;48.182;-1.644;2023-02-03T05:32:48;11.50;80.40
12622;DHT22;6376;48.182;-1.644;2023-02-03T05:35:14;11.50;80.40
12622;DHT22;6376;48.182;-1.644;2023-02-03T05:37:39;11.50;80.40
12622;DHT22;6376;48.182;-1.644;2023-02-03T05:40:05;11.50;80.40
12622;DHT22;6376;48.182;-1.644;2023-02-03T05:42:50;11.50;80.40
12622;DHT22;6376;48.182;-1.644;2023-02-03T05:45:16;11.50;80.40
12622;DHT22;6376;48.182;-1.644;2023-02-03T05:47:42;11.50;80.50
12622;DHT22;6376;48.182;-1.644;2023-02-03T05:50:07;11.40;80.40
12622;DHT22;6376;48.182;-1.644;2023-02-03T05:52:33;11.50;80.50
12622;DHT22;6376;48.182;-1.644;2023-02-03T05:54:59;11.50;80.50
12622;DHT22;6376;48.182;-1.644;2023-02-03T05:57:24;11.50;80.50
12622;DHT22;6376;48.182;-1.644;2023-02-03T05:59:50;11.40;80.40
12622;DHT22;6376;48.182;-1.644;2023-02-03T06:02:15;11.40;80.40
12622;DHT22;6376;48.182;-1.644;2023-02-03T06:04:41;11.40;80.40
12622;DHT22;6376;48.182;-1.644;2023-02-03T06:07:07;11.40;80.40
12622;DHT22;6376;48.182;-1.644;2023-02-03T06:09:32;11.40;80.50
12622;DHT22;6376;48.182;-1.644;2023-02-03T06:11:58;11.40;80.40
12622;DHT22;6376;48.182;-1.644;2023-02-03T06:14:24;11.40;80.40
12622;DHT22;6376;48.182;-1.644;2023-02-03T06:16:49;11.40;80.50
12622;DHT22;6376;48.182;-1.644;2023-02-03T06:19:15;11.40;80.40
12622;DHT22;6376;48.182;-1.644;2023-02-03T06:21:40;11.40;80.40
12622;DHT22;6376;48.182;-1.644;2023-02-03T06:24:06;11.40;80.40
12622;DHT22;6376;48.182;-1.644;2023-02-03T06:26:32;11.40;80.40
12622;DHT22;6376;48.182;-1.644;2023-02-03T06:28:57;11.40;80.40
12622;DHT22;6376;48.182;-1.644;2023-02-03T06:31:23;11.40;80.40
12622;DHT22;6376;48.182;-1.644;2023-02-03T06:33:49;11.40;80.40
12622;DHT22;6376;48.182;-1.644;2023-02-03T06:36:14;11.40;80.40
12622;DHT22;6376;48.182;-1.644;2023-02-03T06:38:40;11.40;80.40
12622;DHT22;6376;48.182;-1.644;2023-02-03T06:41:05;11.40;80.40
12622;DHT22;6376;48.182;-1.644;2023-02-03T06:43:31;11.40;80.50
12622;DHT22;6376;48.182;-1.644;2023-02-03T06:45:57;11.40;80.50
12622;DHT22;6376;48.182;-1.644;2023-02-03T06:48:22;11.40;80.50
12622;DHT22;6376;48.182;-1.644;2023-02-03T06:50:48;11.40;80.50
12622;DHT22;6376;48.182;-1.644;2023-02-03T06:53:14;11.40;80.40
12622;DHT22;6376;48.182;-1.644;2023-02-03T06:55:39;11.40;80.40
12622;DHT22;6376;48.182;-1.644;2023-02-03T06:58:05;11.40;80.40
12622;DHT22;6376;48.182;-1.644;2023-02-03T07:00:31;11.40;80.50
12622;DHT22;6376;48.182;-1.644;2023-02-03T07:02:57;11.40;80.50
12622;DHT22;6376;48.182;-1.644;2023-02-03T07:05:24;11.40;80.50
12622;DHT22;6376;48.182;-1.644;2023-02-03T07:07:51;11.40;80.50
12622;DHT22;6376;48.182;-1.644;2023-02-03T07:10:16;11.40;80.50
12622;DHT22;6376;48.182;-1.644;2023-02-03T07:12:42;11.40;80.50
12622;DHT22;6376;48.182;-1.644;2023-02-03T07:15:09;11.40;80.40
12622;DHT22;6376;48.182;-1.644;2023-02-03T07:17:35;11.40;80.50
12622;DHT22;6376;48.182;-1.644;2023-02-03T07:20:01;11.40;80.50
12622;DHT22;6376;48.182;-1.644;2023-02-03T07:22:26;11.40;80.50
12622;DHT22;6376;48.182;-1.644;2023-02-03T07:24:52;11.40;80.50
12622;DHT22;6376;48.182;-1.644;2023-02-03T07:27:17;11.40;80.50
12622;DHT22;6376;48.182;-1.644;2023-02-03T07:29:44;11.30;80.40
12622;DHT22;6376;48.182;-1.644;2023-02-03T07:32:10;11.40;80.50
12622;DHT22;6376;48.182;-1.644;2023-02-03T07:34:35;11.30;80.50
12622;DHT22;6376;48.182;-1.644;2023-02-03T07:37:01;11.30;80.50
12622;DHT22;6376;48.182;-1.644;2023-02-03T07:39:27;11.30;80.50
12622;DHT22;6376;48.182;-1.644;2023-02-03T07:41:52;11.30;80.50
12622;DHT22;6376;48.182;-1.644;2023-02-03T07:44:18;11.30;80.50
12622;DHT22;6376;48.182;-1.644;2023-02-03T07:46:44;11.30;80.50
12622;DHT22;6376;48.182;-1.644;2023-02-03T07:49:10;11.30;80.50
12622;DHT22;6376;48.182;-1.644;2023-02-03T07:51:36;11.30;80.50
12622;DHT22;6376;48.182;-1.644;2023-02-03T07:54:02;11.30;80.50
12622;DHT22;6376;48.182;-1.644;2023-02-03T07:56:28;11.30;80.50
12622;DHT22;6376;48.182;-1.644;2023-02-03T07:58:55;11.30;80.40
12622;DHT22;6376;48.182;-1.644;2023-02-03T08:01:21;11.40;81.00
12622;DHT22;6376;48.182;-1.644;2023-02-03T08:03:46;11.30;80.50
12622;DHT22;6376;48.182;-1.644;2023-02-03T08:06:12;11.30;80.50
12622;DHT22;6376;48.182;-1.644;2023-02-03T08:08:37;11.30;80.50
12622;DHT22;6376;48.182;-1.644;2023-02-03T08:11:04;11.30;80.50
12622;DHT22;6376;48.182;-1.644;2023-02-03T08:13:29;11.30;80.40
12622;DHT22;6376;48.182;-1.644;2023-02-03T08:15:55;11.30;80.40
12622;DHT22;6376;48.182;-1.644;2023-02-03T08:18:21;11.30;80.40
12622;DHT22;6376;48.182;-1.644;2023-02-03T08:20:46;11.40;80.40
12622;DHT22;6376;48.182;-1.644;2023-02-03T08:23:12;11.40;80.40
12622;DHT22;6376;48.182;-1.644;2023-02-03T08:25:38;11.40;80.40
12622;DHT22;6376;48.182;-1.644;2023-02-03T08:28:04;11.30;80.40
12622;DHT22;6376;48.182;-1.644;2023-02-03T08:30:30;11.30;80.40
12622;DHT22;6376;48.182;-1.644;2023-02-03T08:32:56;11.40;80.40
12622;DHT22;6376;48.182;-1.644;2023-02-03T08:35:23;11.40;80.40
12622;DHT22;6376;48.182;-1.644;2023-02-03T08:37:49;11.40;80.40
12622;DHT22;6376;48.182;-1.644;2023-02-03T08:40:15;11.40;80.40
12622;DHT22;6376;48.182;-1.644;2023-02-03T08:42:40;11.40;80.40
12622;DHT22;6376;48.182;-1.644;2023-02-03T08:45:06;11.40;80.30
12622;DHT22;6376;48.182;-1.644;2023-02-03T08:47:32;11.40;80.30
12622;DHT22;6376;48.182;-1.644;2023-02-03T08:49:58;11.40;80.10
12622;DHT22;6376;48.182;-1.644;2023-02-03T08:52:24;11.60;79.80
12622;DHT22;6376;48.182;-1.644;2023-02-03T08:54:49;11.70;79.10
12622;DHT22;6376;48.182;-1.644;2023-02-03T08:57:15;11.70;79.20
12622;DHT22;6376;48.182;-1.644;2023-02-03T08:59:42;11.60;79.20
12622;DHT22;6376;48.182;-1.644;2023-02-03T09:02:13;11.60;79.30
12622;DHT22;6376;48.182;-1.644;2023-02-03T09:04:39;11.60;79.40
12622;DHT22;6376;48.182;-1.644;2023-02-03T09:07:05;11.60;79.50
12622;DHT22;6376;48.182;-1.644;2023-02-03T09:09:31;11.60;79.50
12622;DHT22;6376;48.182;-1.644;2023-02-03T09:11:56;11.60;79.40
12622;DHT22;6376;48.182;-1.644;2023-02-03T09:14:29;11.70;79.40
12622;DHT22;6376;48.182;-1.644;2023-02-03T09:16:57;11.80;78.90
12622;DHT22;6376;48.182;-1.644;2023-02-03T09:19:22;11.80;78.60
12622;DHT22;6376;48.182;-1.644;2023-02-03T09:21:48;11.70;78.70
12622;DHT22;6376;48.182;-1.644;2023-02-03T09:24:17;11.70;78.80
12622;DHT22;6376;48.182;-1.644;2023-02-03T09:26:43;11.60;78.60
12622;DHT22;6376;48.182;-1.644;2023-02-03T09:29:09;11.60;78.90
12622;DHT22;6376;48.182;-1.644;2023-02-03T09:31:35;11.60;79.10
12622;DHT22;6376;48.182;-1.644;2023-02-03T09:34:01;11.60;79.20
12622;DHT22;6376;48.182;-1.644;2023-02-03T09:36:27;11.60;79.30
12622;DHT22;6376;48.182;-1.644;2023-02-03T09:38:53;11.60;79.20
12622;DHT22;6376;48.182;-1.644;2023-02-03T09:41:41;11.60;79.20
12622;DHT22;6376;48.182;-1.644;2023-02-03T09:44:38;11.70;79.30
12622;DHT22;6376;48.182;-1.644;2023-02-03T09:47:15;11.80;79.10
12622;DHT22;6376;48.182;-1.644;2023-02-03T09:52:23;11.80;78.50
12622;DHT22;6376;48.182;-1.644;2023-02-03T09:57:46;11.80;78.70
12622;DHT22;6376;48.182;-1.644;2023-02-03T10:00:22;11.80;79.60
12622;DHT22;6376;48.182;-1.644;2023-02-03T10:03:46;11.80;79.00
12622;DHT22;6376;48.182;-1.644;2023-02-03T10:08:21;11.70;79.00
12622;DHT22;6376;48.182;-1.644;2023-02-03T10:11:01;11.80;78.90
12622;DHT22;6376;48.182;-1.644;2023-02-03T10:16:40;11.90;78.70
12622;DHT22;6376;48.182;-1.644;2023-02-03T10:19:16;11.90;78.60
12622;DHT22;6376;48.182;-1.644;2023-02-03T10:21:52;11.80;78.60
12622;DHT22;6376;48.182;-1.644;2023-02-03T10:24:42;11.80;78.60
12622;DHT22;6376;48.182;-1.644;2023-02-03T10:27:18;11.80;78.70
12622;DHT22;6376;48.182;-1.644;2023-02-03T10:29:52;11.80;78.60
12622;DHT22;6376;48.182;-1.644;2023-02-03T10:32:18;11.90;78.70
12622;DHT22;6376;48.182;-1.644;2023-02-03T10:34:46;12.10;77.70
12622;DHT22;6376;48.182;-1.644;2023-02-03T10:39:51;12.20;77.10
12622;DHT22;6376;48.182;-1.644;2023-02-03T10:42:17;12.20;77.40
12622;DHT22;6376;48.182;-1.644;2023-02-03T10:45:02;12.10;77.50
12622;DHT22;6376;48.182;-1.644;2023-02-03T10:50:27;12.10;77.90
12622;DHT22;6376;48.182;-1.644;2023-02-03T10:53:23;12.10;77.80
12622;DHT22;6376;48.182;-1.644;2023-02-03T10:55:59;12.20;77.60
12622;DHT22;6376;48.182;-1.644;2023-02-03T10:58:29;12.40;76.90
12622;DHT22;6376;48.182;-1.644;2023-02-03T11:01:16;12.40;76.30
12622;DHT22;6376;48.182;-1.644;2023-02-03T11:04:04;12.40;76.50
12622;DHT22;6376;48.182;-1.644;2023-02-03T11:06:31;12.60;75.60
12622;DHT22;6376;48.182;-1.644;2023-02-03T11:08:57;12.70;75.60
12622;DHT22;6376;48.182;-1.644;2023-02-03T11:11:25;12.60;75.80
12622;DHT22;6376;48.182;-1.644;2023-02-03T11:16:25;12.50;76.30
12622;DHT22;6376;48.182;-1.644;2023-02-03T11:18:52;12.40;76.40
12622;DHT22;6376;48.182;-1.644;2023-02-03T11:21:24;12.40;76.50
12622;DHT22;6376;48.182;-1.644;2023-02-03T11:26:43;12.40;76.40
12622;DHT22;6376;48.182;-1.644;2023-02-03T11:29:28;12.40;76.60
12622;DHT22;6376;48.182;-1.644;2023-02-03T11:31:56;12.60;76.10
12622;DHT22;6376;48.182;-1.644;2023-02-03T11:34:36;12.70;75.50
12622;DHT22;6376;48.182;-1.644;2023-02-03T11:37:25;12.90;74.80
12622;DHT22;6376;48.182;-1.644;2023-02-03T11:42:35;13.20;73.60
12622;DHT22;6376;48.182;-1.644;2023-02-03T11:45:26;13.10;73.70
12622;DHT22;6376;48.182;-1.644;2023-02-03T11:51:17;12.90;74.50
12622;DHT22;6376;48.182;-1.644;2023-02-03T11:54:14;12.80;75.00
12622;DHT22;6376;48.182;-1.644;2023-02-03T12:21:44;12.40;76.80
12622;DHT22;6376;48.182;-1.644;2023-02-03T12:32:51;12.30;77.10
12622;DHT22;6376;48.182;-1.644;2023-02-03T12:35:31;12.30;77.80
12622;DHT22;6376;48.182;-1.644;2023-02-03T12:40:51;12.30;75.80
12622;DHT22;6376;48.182;-1.644;2023-02-03T12:43:29;12.20;75.30
12622;DHT22;6376;48.182;-1.644;2023-02-03T12:46:02;12.20;76.40
12622;DHT22;6376;48.182;-1.644;2023-02-03T12:51:11;12.10;75.80
12622;DHT22;6376;48.182;-1.644;2023-02-03T12:53:41;12.10;76.20
12622;DHT22;6376;48.182;-1.644;2023-02-03T12:56:17;12.10;76.30
12622;DHT22;6376;48.182;-1.644;2023-02-03T12:58:51;12.10;76.60
12622;DHT22;6376;48.182;-1.644;2023-02-03T13:01:22;12.10;77.10
12622;DHT22;6376;48.182;-1.644;2023-02-03T13:04:03;12.10;77.30
12622;DHT22;6376;48.182;-1.644;2023-02-03T13:06:59;12.00;77.20
12622;DHT22;6376;48.182;-1.644;2023-02-03T13:09:34;12.00;78.00
12622;DHT22;6376;48.182;-1.644;2023-02-03T13:12:24;12.00;77.80
12622;DHT22;6376;48.182;-1.644;2023-02-03T13:15:05;12.10;78.20
12622;DHT22;6376;48.182;-1.644;2023-02-03T13:20:18;12.00;78.30
12622;DHT22;6376;48.182;-1.644;2023-02-03T13:22:48;12.10;78.40
12622;DHT22;6376;48.182;-1.644;2023-02-03T13:36:25;12.10;78.50
12622;DHT22;6376;48.182;-1.644;2023-02-03T13:41:49;12.10;78.40
12622;DHT22;6376;48.182;-1.644;2023-02-03T13:44:20;12.10;78.40
12622;DHT22;6376;48.182;-1.644;2023-02-03T13:46:48;12.10;78.40
12622;DHT22;6376;48.182;-1.644;2023-02-03T13:49:29;12.10;78.40
12622;DHT22;6376;48.182;-1.644;2023-02-03T13:51:56;12.10;78.40
12622;DHT22;6376;48.182;-1.644;2023-02-03T13:54:24;12.10;78.40
12622;DHT22;6376;48.182;-1.644;2023-02-03T13:57:03;12.10;78.50
12622;DHT22;6376;48.182;-1.644;2023-02-03T14:07:33;12.00;78.60
12622;DHT22;6376;48.182;-1.644;2023-02-03T14:25:25;12.00;78.50
12622;DHT22;6376;48.182;-1.644;2023-02-03T14:27:59;12.00;78.60
12622;DHT22;6376;48.182;-1.644;2023-02-03T14:30:27;12.00;78.70
12622;DHT22;6376;48.182;-1.644;2023-02-03T14:33:00;12.00;78.80
12622;DHT22;6376;48.182;-1.644;2023-02-03T14:35:38;12.00;78.80
12622;DHT22;6376;48.182;-1.644;2023-02-03T14:38:10;12.00;78.90
12622;DHT22;6376;48.182;-1.644;2023-02-03T14:40:54;12.00;78.80
12622;DHT22;6376;48.182;-1.644;2023-02-03T14:57:51;12.00;79.00
12622;DHT22;6376;48.182;-1.644;2023-02-03T15:05:42;11.90;79.10
12622;DHT22;6376;48.182;-1.644;2023-02-03T15:08:34;11.90;79.10
12622;DHT22;6376;48.182;-1.644;2023-02-03T15:13:49;11.90;79.10
12622;DHT22;6376;48.182;-1.644;2023-02-03T15:16:20;11.90;79.10
12622;DHT22;6376;48.182;-1.644;2023-02-03T15:18:53;11.90;79.10
12622;DHT22;6376;48.182;-1.644;2023-02-03T15:21:19;11.90;79.10
12622;DHT22;6376;48.182;-1.644;2023-02-03T15:23:47;11.90;79.10
12622;DHT22;6376;48.182;-1.644;2023-02-03T15:26:26;11.90;79.20
12622;DHT22;6376;48.182;-1.644;2023-02-03T15:29:00;11.90;79.20
12622;DHT22;6376;48.182;-1.644;2023-02-03T15:31:36;11.90;79.20
12622;DHT22;6376;48.182;-1.644;2023-02-03T15:34:32;11.90;79.30
12622;DHT22;6376;48.182;-1.644;2023-02-03T15:37:05;11.90;79.30
12622;DHT22;6376;48.182;-1.644;2023-02-03T15:39:48;11.90;79.30
12622;DHT22;6376;48.182;-1.644;2023-02-03T15:42:22;11.90;79.30
12622;DHT22;6376;48.182;-1.644;2023-02-03T15:44:58;11.90;79.40
12622;DHT22;6376;48.182;-1.644;2023-02-03T15:47:31;11.90;79.40
12622;DHT22;6376;48.182;-1.644;2023-02-03T15:50:07;11.90;79.40
12622;DHT22;6376;48.182;-1.644;2023-02-03T15:52:36;11.90;79.40
12622;DHT22;6376;48.182;-1.644;2023-02-03T15:55:22;11.90;79.40
12622;DHT22;6376;48.182;-1.644;2023-02-03T15:57:50;11.90;79.40
12622;DHT22;6376;48.182;-1.644;2023-02-03T16:00:37;11.80;79.40
12622;DHT22;6376;48.182;-1.644;2023-02-03T16:03:14;11.90;79.50
12622;DHT22;6376;48.182;-1.644;2023-02-03T16:05:41;11.90;79.40
12622;DHT22;6376;48.182;-1.644;2023-02-03T16:08:34;11.80;79.40
12622;DHT22;6376;48.182;-1.644;2023-02-03T16:11:00;11.80;79.40
12622;DHT22;6376;48.182;-1.644;2023-02-03T16:13:28;11.80;79.50
12622;DHT22;6376;48.182;-1.644;2023-02-03T16:16:16;11.80;79.50
12622;DHT22;6376;48.182;-1.644;2023-02-03T16:18:50;11.80;79.50
12622;DHT22;6376;48.182;-1.644;2023-02-03T16:21:36;11.80;79.40
12622;DHT22;6376;48.182;-1.644;2023-02-03T16:24:03;11.80;79.50
12622;DHT22;6376;48.182;-1.644;2023-02-03T16:26:31;11.80;79.60
12622;DHT22;6376;48.182;-1.644;2023-02-03T16:31:47;11.80;79.60
12622;DHT22;6376;48.182;-1.644;2023-02-03T16:34:32;11.80;79.60
12622;DHT22;6376;48.182;-1.644;2023-02-03T16:37:26;11.80;79.70
12622;DHT22;6376;48.182;-1.644;2023-02-03T16:40:12;11.80;79.70
12622;DHT22;6376;48.182;-1.644;2023-02-03T16:42:56;11.80;79.70
12622;DHT22;6376;48.182;-1.644;2023-02-03T16:45:40;11.80;79.80
12622;DHT22;6376;48.182;-1.644;2023-02-03T16:48:25;11.80;79.70
12622;DHT22;6376;48.182;-1.644;2023-02-03T16:51:15;11.80;79.70
12622;DHT22;6376;48.182;-1.644;2023-02-03T16:53:42;11.80;79.70
12622;DHT22;6376;48.182;-1.644;2023-02-03T16:56:09;11.80;79.70
12622;DHT22;6376;48.182;-1.644;2023-02-03T16:58:35;11.80;79.80
12622;DHT22;6376;48.182;-1.644;2023-02-03T17:01:02;11.80;79.80
12622;DHT22;6376;48.182;-1.644;2023-02-03T17:03:33;11.80;79.80
12622;DHT22;6376;48.182;-1.644;2023-02-03T17:06:04;11.80;79.90
12622;DHT22;6376;48.182;-1.644;2023-02-03T17:08:31;11.80;79.80
12622;DHT22;6376;48.182;-1.644;2023-02-03T17:11:02;11.80;79.80
12622;DHT22;6376;48.182;-1.644;2023-02-03T17:13:28;11.80;79.80
12622;DHT22;6376;48.182;-1.644;2023-02-03T17:15:54;11.80;79.80
12622;DHT22;6376;48.182;-1.644;2023-02-03T17:18:20;11.80;79.90
12622;DHT22;6376;48.182;-1.644;2023-02-03T17:20:46;11.70;79.80
12622;DHT22;6376;48.182;-1.644;2023-02-03T17:23:12;11.70;79.90
12622;DHT22;6376;48.182;-1.644;2023-02-03T17:25:42;11.70;79.90
12622;DHT22;6376;48.182;-1.644;2023-02-03T17:28:09;11.70;79.90
12622;DHT22;6376;48.182;-1.644;2023-02-03T17:30:35;11.70;79.90
12622;DHT22;6376;48.182;-1.644;2023-02-03T17:33:03;11.70;79.90
12622;DHT22;6376;48.182;-1.644;2023-02-03T17:35:37;11.80;79.90
12622;DHT22;6376;48.182;-1.644;2023-02-03T17:38:03;11.80;79.90
12622;DHT22;6376;48.182;-1.644;2023-02-03T17:40:28;11.70;79.90
12622;DHT22;6376;48.182;-1.644;2023-02-03T17:42:54;11.70;79.90
12622;DHT22;6376;48.182;-1.644;2023-02-03T17:45:19;11.70;79.90
12622;DHT22;6376;48.182;-1.644;2023-02-03T17:47:45;11.70;79.90
12622;DHT22;6376;48.182;-1.644;2023-02-03T17:50:12;11.70;79.90
12622;DHT22;6376;48.182;-1.644;2023-02-03T17:52:40;11.70;80.00
12622;DHT22;6376;48.182;-1.644;2023-02-03T17:55:06;11.70;80.00
12622;DHT22;6376;48.182;-1.644;2023-02-03T17:57:36;11.70;80.00
12622;DHT22;6376;48.182;-1.644;2023-02-03T18:00:02;11.70;80.00
12622;DHT22;6376;48.182;-1.644;2023-02-03T18:02:27;11.70;80.00
12622;DHT22;6376;48.182;-1.644;2023-02-03T18:04:53;11.70;80.00
12622;DHT22;6376;48.182;-1.644;2023-02-03T18:07:19;11.70;80.00
12622;DHT22;6376;48.182;-1.644;2023-02-03T18:09:44;11.70;80.00
12622;DHT22;6376;48.182;-1.644;2023-02-03T18:12:10;11.70;80.00
12622;DHT22;6376;48.182;-1.644;2023-02-03T18:14:35;11.70;80.00
12622;DHT22;6376;48.182;-1.644;2023-02-03T18:17:01;11.70;80.00
12622;DHT22;6376;48.182;-1.644;2023-02-03T18:19:27;11.70;80.00
12622;DHT22;6376;48.182;-1.644;2023-02-03T18:21:52;11.70;80.00
12622;DHT22;6376;48.182;-1.644;2023-02-03T18:24:18;11.70;80.00
12622;DHT22;6376;48.182;-1.644;2023-02-03T18:26:49;11.70;80.00
12622;DHT22;6376;48.182;-1.644;2023-02-03T18:29:15;11.70;80.00
12622;DHT22;6376;48.182;-1.644;2023-02-03T18:31:41;11.70;79.90